Time;durP1;ratioP1;P1;durP2;ratioP2;P2;SDS_P1;SDS_P2;PMS_P1;PMS_P2;Temp;Humidity;BMP_temperature;BMP_pressure;BME280_temperature;BME280_humidity;BME280_pressure;Samples;Min_cycle;Max_cycle;Signal;HPM_P1;HPM_P2
2022/07/20 00:00:42;;;;;;;3.90;2.95;;;;;;;22.79;42.08;100311.06;4419416;32;33273;-83
2022/07/20 00:03:12;;;;;;;7.80;2.92;;;;;;;22.82;42.18;100311.66;4402458;32;34523;-83
2022/07/20 00:05:41;;;;;;;3.50;2.42;;;;;;;22.26;43.48;100313.81;4394998;32;33415;-84
2022/07/20 00:08:09;;;;;;;2.00;1.83;;;;;;;22.10;43.49;100308.84;4406270;32;33212;-84
2022/07/20 00:13:24;;;;;;;2.53;1.55;;;;;;;22.56;42.17;100316.59;4409348;32;33924;-84
2022/07/20 00:15:52;;;;;;;8.82;2.28;;;;;;;22.57;42.39;100307.53;4398469;32;32874;-84
2022/07/20 00:18:20;;;;;;;7.15;2.00;;;;;;;22.56;42.64;100316.59;4407755;32;33183;-83
2022/07/20 00:20:47;;;;;;;2.37;1.92;;;;;;;22.53;42.68;100306.09;4400348;32;33937;-84
2022/07/20 00:23:16;;;;;;;2.50;1.85;;;;;;;22.55;42.35;100314.03;4420428;32;34634;-84
2022/07/20 00:25:43;;;;;;;6.87;2.12;;;;;;;22.46;42.34;100310.31;4407935;32;34122;-83
2022/07/20 00:28:11;;;;;;;2.85;2.10;;;;;;;22.47;42.03;100312.84;4382383;32;33233;-84
2022/07/20 00:30:42;;;;;;;1.75;1.55;;;;;;;22.33;42.15;100315.00;4407619;32;33223;-84
2022/07/20 00:33:11;;;;;;;4.97;2.47;;;;;;;22.42;42.05;100314.22;4419614;32;33707;-84
2022/07/20 00:35:39;;;;;;;4.20;1.80;;;;;;;22.46;41.85;100308.47;4407641;32;34540;-83
2022/07/20 00:38:07;;;;;;;2.03;1.62;;;;;;;22.52;42.04;100301.69;4407544;32;33268;-84
2022/07/20 00:40:35;;;;;;;5.75;1.80;;;;;;;22.45;42.52;100316.66;4399781;32;33784;-83
2022/07/20 00:43:03;;;;;;;6.47;2.20;;;;;;;22.44;42.65;100313.09;4419519;32;34154;-83
2022/07/20 00:45:31;;;;;;;3.87;1.92;;;;;;;22.29;43.24;100318.94;4420279;32;33824;-83
2022/07/20 00:47:59;;;;;;;2.35;1.73;;;;;;;22.35;43.00;100315.72;4413149;32;34612;-83
2022/07/20 00:50:28;;;;;;;4.43;2.12;;;;;;;22.34;42.95;100322.94;4417463;32;31793;-83
2022/07/20 00:52:56;;;;;;;6.32;2.12;;;;;;;22.37;42.70;100317.31;4403582;32;33639;-83
2022/07/20 00:55:24;;;;;;;5.53;1.87;;;;;;;22.35;42.35;100316.56;4391268;32;32858;-84
2022/07/20 00:57:52;;;;;;;5.25;2.15;;;;;;;22.42;42.31;100314.22;4422120;32;33327;-84
2022/07/20 01:00:21;;;;;;;3.70;1.45;;;;;;;22.35;42.47;100319.25;4391251;32;32531;-84
2022/07/20 01:02:48;;;;;;;4.50;1.52;;;;;;;22.18;43.08;100311.78;4388319;32;32948;-83
2022/07/20 01:05:17;;;;;;;3.47;2.12;;;;;;;22.15;43.33;100320.94;4426566;32;32179;-83
2022/07/20 01:07:46;;;;;;;2.90;1.75;;;;;;;22.14;43.53;100316.56;4399759;32;32853;-83
2022/07/20 01:10:16;;;;;;;9.10;1.80;;;;;;;22.13;43.55;100316.69;4408144;32;34731;-84
2022/07/20 01:12:46;;;;;;;2.25;1.70;;;;;;;22.18;42.91;100318.00;4401406;32;33088;-83
2022/07/20 01:15:14;;;;;;;2.17;1.73;;;;;;;21.99;43.33;100320.50;4389010;32;33028;-83
2022/07/20 01:17:43;;;;;;;3.40;1.83;;;;;;;22.03;43.40;100321.97;4402098;32;31610;-83
2022/07/20 01:20:17;;;;;;;3.28;1.77;;;;;;;22.08;43.08;100313.50;4404813;32;33102;-82
2022/07/20 01:22:46;;;;;;;3.62;1.85;;;;;;;22.07;43.09;100323.38;4399803;32;33644;-83
2022/07/20 01:25:14;;;;;;;4.28;1.70;;;;;;;21.76;44.43;100317.03;4413270;32;34060;-83
2022/07/20 01:27:42;;;;;;;2.72;2.05;;;;;;;21.75;44.59;100319.84;4419238;32;33260;-83
2022/07/20 01:30:11;;;;;;;4.15;2.03;;;;;;;21.76;44.55;100319.72;4389090;32;33684;-83
2022/07/20 01:32:38;;;;;;;4.10;1.98;;;;;;;21.67;45.39;100323.16;4403554;32;33164;-82
2022/07/20 01:35:07;;;;;;;2.65;1.55;;;;;;;21.70;44.72;100323.75;4415322;32;33915;-83
2022/07/20 01:37:34;;;;;;;2.67;2.05;;;;;;;21.76;44.77;100327.78;4386240;32;33278;-83
2022/07/20 01:40:03;;;;;;;5.10;2.03;;;;;;;21.78;44.74;100322.25;4387634;32;32897;-83
2022/07/20 01:42:31;;;;;;;3.53;1.70;;;;;;;21.70;44.85;100322.91;4387319;32;34442;-82
2022/07/20 01:44:59;;;;;;;2.70;1.67;;;;;;;21.69;44.61;100327.41;4414642;32;34546;-82
2022/07/20 01:47:27;;;;;;;1.62;1.50;;;;;;;21.69;44.38;100327.41;4416760;32;33533;-83
2022/07/20 01:49:54;;;;;;;2.12;1.75;;;;;;;21.67;44.26;100325.84;4406726;32;34458;-83
2022/07/20 01:52:24;;;;;;;2.87;1.60;;;;;;;21.54;44.36;100315.22;4403311;32;88932;-83
2022/07/20 01:54:52;;;;;;;3.80;1.83;;;;;;;21.48;44.24;100327.31;4413321;32;34037;-83
2022/07/20 01:57:20;;;;;;;2.20;1.83;;;;;;;21.50;44.50;100326.34;4406422;32;34331;-83
2022/07/20 01:59:50;;;;;;;3.50;1.85;;;;;;;21.52;44.44;100327.94;4401149;32;33721;-84
2022/07/20 02:02:19;;;;;;;2.17;1.55;;;;;;;21.45;44.57;100322.19;4408277;32;32966;-83
2022/07/20 02:04:47;;;;;;;3.03;1.80;;;;;;;21.50;44.40;100326.34;4420930;32;35389;-84
2022/07/20 02:07:15;;;;;;;3.60;2.35;;;;;;;21.55;44.38;100334.88;4406424;32;32870;-84
2022/07/20 02:09:42;;;;;;;6.95;1.90;;;;;;;21.39;45.11;100329.91;4416137;32;33793;-83
2022/07/20 02:12:11;;;;;;;5.20;2.55;;;;;;;21.26;45.48;100329.97;4414262;32;33803;-84
2022/07/20 02:14:38;;;;;;;2.50;2.00;;;;;;;21.20;45.81;100330.47;4420933;32;34380;-83
2022/07/20 02:17:07;;;;;;;6.82;2.42;;;;;;;21.34;45.40;100334.78;4406094;32;32695;-83
2022/07/20 02:19:37;;;;;;;3.53;2.30;;;;;;;21.38;45.06;100331.72;4409504;32;33343;-83
2022/07/20 02:22:11;;;;;;;3.55;2.00;;;;;;;21.34;44.85;100332.09;4420455;32;32764;-83
2022/07/20 02:24:39;;;;;;;4.62;2.70;;;;;;;21.16;45.11;100329.88;4401881;32;33043;-83
2022/07/20 02:27:07;;;;;;;2.95;2.20;;;;;;;20.92;46.20;100326.44;4421099;32;34379;-82
2022/07/20 02:29:35;;;;;;;2.28;2.03;;;;;;;20.98;46.20;100325.94;4401893;32;33317;-83
2022/07/20 02:32:03;;;;;;;3.30;2.22;;;;;;;21.03;45.84;100318.41;4413011;32;33951;-82
2022/07/20 02:34:31;;;;;;;2.78;2.25;;;;;;;20.89;46.42;100324.00;4402248;32;32955;-82
2022/07/20 02:36:59;;;;;;;3.10;2.25;;;;;;;20.96;46.22;100323.38;4408654;32;33988;-82
2022/07/20 02:39:27;;;;;;;6.12;2.15;;;;;;;21.05;45.86;100323.66;4413528;32;34366;-83
2022/07/20 02:41:55;;;;;;;5.05;1.83;;;;;;;20.71;46.54;100319.09;4395678;32;33979;-82
2022/07/20 02:44:22;;;;;;;5.70;2.00;;;;;;;20.41;46.51;100322.28;4408765;32;33688;-82
2022/07/20 02:46:50;;;;;;;6.03;1.90;;;;;;;20.26;46.99;100318.06;4406219;32;32247;-82
2022/07/20 02:49:18;;;;;;;2.80;1.83;;;;;;;20.55;46.70;100315.88;4405984;32;33638;-82
2022/07/20 02:51:45;;;;;;;4.97;1.85;;;;;;;20.62;45.96;100309.06;4407120;32;32982;-82
2022/07/20 02:54:13;;;;;;;2.92;1.90;;;;;;;20.70;45.89;100314.72;4414850;32;33774;-82
2022/07/20 02:56:41;;;;;;;2.10;1.90;;;;;;;20.76;46.12;100320.56;4394556;32;33330;-83
2022/07/20 02:59:09;;;;;;;2.12;1.92;;;;;;;20.64;46.91;100322.34;4408181;32;33604;-82
2022/07/20 03:01:37;;;;;;;3.00;1.83;;;;;;;20.67;46.69;100325.66;4407860;32;34065;-82
2022/07/20 03:04:07;;;;;;;3.45;2.67;;;;;;;20.69;46.55;100326.38;4413797;32;34022;-82
2022/07/20 03:06:36;;;;;;;4.65;1.85;;;;;;;20.78;46.37;100323.97;4416623;32;33599;-83
2022/07/20 03:09:05;;;;;;;6.60;1.75;;;;;;;20.75;46.61;100329.56;4401404;32;33868;-83
2022/07/20 03:11:33;;;;;;;3.40;1.73;;;;;;;20.68;46.69;100326.53;4395856;32;34170;-82
2022/07/20 03:14:01;;;;;;;2.95;1.92;;;;;;;20.83;46.19;100327.16;4404568;32;33370;-83
2022/07/20 03:16:29;;;;;;;3.35;1.83;;;;;;;20.67;46.60;100331.03;4421229;32;34244;-82
2022/07/20 03:18:57;;;;;;;3.60;1.77;;;;;;;20.73;46.62;100334.22;4420917;32;33523;-83
2022/07/20 03:21:25;;;;;;;5.18;1.80;;;;;;;20.79;46.10;100325.69;4401389;32;33997;-82
2022/07/20 03:23:53;;;;;;;2.62;2.15;;;;;;;20.66;46.52;100334.69;4408497;32;32275;-83
2022/07/20 03:26:22;;;;;;;6.05;2.20;;;;;;;20.62;46.80;100335.91;4421947;32;34326;-83
2022/07/20 03:28:50;;;;;;;2.95;1.50;;;;;;;20.69;46.61;100331.75;4407911;32;33976;-82
2022/07/20 03:31:19;;;;;;;6.35;2.50;;;;;;;20.70;46.69;100338.84;4408441;32;33987;-83
2022/07/20 03:33:53;;;;;;;4.30;2.03;;;;;;;20.61;47.10;100336.03;4420843;32;33568;-82
2022/07/20 03:36:21;;;;;;;2.78;1.73;;;;;;;20.60;47.08;100342.34;4420782;32;33246;-83
2022/07/20 03:38:49;;;;;;;3.97;2.05;;;;;;;20.60;47.51;100343.19;4408103;32;33136;-82
2022/07/20 03:41:18;;;;;;;6.80;2.22;;;;;;;20.57;47.77;100347.97;4420093;32;33956;-83
2022/07/20 03:43:46;;;;;;;4.53;2.45;;;;;;;20.56;48.03;100351.63;4420722;32;33526;-82
2022/07/20 03:46:17;;;;;;;5.90;2.50;;;;;;;20.64;47.96;100350.03;4403109;32;32673;-82
2022/07/20 03:48:46;;;;;;;5.95;2.33;;;;;;;20.59;48.14;100346.00;4407917;32;33892;-82
2022/07/20 03:51:14;;;;;;;4.50;2.47;;;;;;;21.01;46.83;100352.56;4419912;32;33555;-82
2022/07/20 03:53:43;;;;;;;2.53;1.70;;;;;;;21.00;46.94;100355.37;4400693;32;33730;-82
2022/07/20 03:56:12;;;;;;;8.13;2.65;;;;;;;21.03;47.15;100357.81;4420819;32;33610;-82
2022/07/20 03:58:40;;;;;;;4.53;2.55;;;;;;;21.11;47.65;100361.59;4408231;32;33977;-83
2022/07/20 04:01:08;;;;;;;5.70;2.17;;;;;;;21.26;47.72;100358.69;4418589;32;33587;-82
2022/07/20 04:03:37;;;;;;;3.20;1.77;;;;;;;21.41;47.31;100360.16;4417987;32;33773;-82
2022/07/20 04:06:05;;;;;;;5.93;2.37;;;;;;;21.45;47.09;100361.63;4393547;32;33417;-83
2022/07/20 04:08:33;;;;;;;4.10;2.05;;;;;;;21.62;45.94;100358.47;4406072;32;33865;-83
2022/07/20 04:11:02;;;;;;;4.32;2.45;;;;;;;21.77;45.27;100361.72;4395957;32;34796;-82
2022/07/20 04:13:30;;;;;;;7.97;2.55;;;;;;;21.91;45.79;100360.59;4405399;32;32889;-82
2022/07/20 04:15:57;;;;;;;5.12;2.00;;;;;;;22.12;46.58;100361.53;4403718;32;33561;-83
2022/07/20 04:18:26;;;;;;;6.78;2.20;;;;;;;22.34;45.77;100357.91;4407884;32;33109;-82
2022/07/20 04:20:53;;;;;;;4.47;2.15;;;;;;;22.26;46.12;100362.22;4421449;32;34199;-83
2022/07/20 04:23:21;;;;;;;3.95;2.33;;;;;;;22.25;46.22;100361.38;4405106;32;33856;-83
2022/07/20 04:25:49;;;;;;;5.60;2.22;;;;;;;22.48;45.85;100359.44;4395284;32;33932;-83
2022/07/20 04:28:17;;;;;;;13.32;3.17;;;;;;;22.54;45.83;100367.00;4419458;32;33690;-83
2022/07/20 04:30:45;;;;;;;8.20;2.40;;;;;;;22.44;46.13;100368.75;4409907;32;34710;-83
2022/07/20 04:33:14;;;;;;;4.50;2.10;;;;;;;22.56;45.96;100365.03;4411000;32;34114;-83
2022/07/20 04:35:42;;;;;;;6.35;1.65;;;;;;;22.86;44.95;100368.78;4399315;32;32137;-82
2022/07/20 04:38:17;;;;;;;4.05;1.87;;;;;;;22.88;44.82;100364.09;4412235;32;34077;-83
2022/07/20 04:40:48;;;;;;;6.97;3.00;;;;;;;22.97;43.98;100364.19;4422801;32;33512;-83
2022/07/20 04:43:15;;;;;;;6.12;2.72;;;;;;;23.14;43.77;100370.81;4412760;32;34096;-83
2022/07/20 04:45:44;;;;;;;3.05;1.92;;;;;;;23.22;44.00;100370.16;4424442;32;33604;-83
2022/07/20 04:48:14;;;;;;;8.23;2.20;;;;;;;23.30;43.75;100358.69;4412675;32;32865;-83
2022/07/20 04:50:43;;;;;;;5.75;2.20;;;;;;;23.39;43.12;100361.44;4412468;32;34014;-83
2022/07/20 04:53:12;;;;;;;6.43;2.00;;;;;;;23.51;42.97;100362.22;4429307;32;34774;-84
2022/07/20 04:55:45;;;;;;;2.45;1.67;;;;;;;23.57;42.87;100361.66;4409693;32;33300;-84
2022/07/20 04:58:16;;;;;;;3.25;1.67;;;;;;;23.97;44.24;100368.87;4411645;32;33961;-84
2022/07/20 05:00:44;;;;;;;6.45;2.15;;;;;;;24.18;43.05;100361.53;4426127;32;33941;-83
2022/07/20 05:03:15;;;;;;;6.15;2.10;;;;;;;24.45;44.02;100357.28;4420428;32;34191;-83
2022/07/20 05:05:48;;;;;;;5.00;1.95;;;;;;;24.55;43.45;100365.41;4399315;32;32590;-83
2022/07/20 05:08:17;;;;;;;8.93;2.10;;;;;;;24.70;43.45;100366.66;4393534;32;33946;-83
2022/07/20 05:10:48;;;;;;;4.05;1.80;;;;;;;24.61;42.74;100367.53;4403361;32;32423;-83
2022/07/20 05:13:16;;;;;;;3.15;2.20;;;;;;;24.69;41.19;100370.38;4401966;32;33634;-83
2022/07/20 05:15:44;;;;;;;4.50;2.28;;;;;;;24.87;40.80;100373.16;4398250;32;33545;-83
2022/07/20 05:18:12;;;;;;;3.33;1.75;;;;;;;25.16;41.12;100365.91;4397397;32;33970;-83
2022/07/20 05:20:40;;;;;;;3.80;1.87;;;;;;;25.24;40.16;100360.59;4404081;32;34331;-83
2022/07/20 05:23:08;;;;;;;4.15;2.37;;;;;;;25.58;39.87;100361.88;4405199;32;33633;-83
2022/07/20 05:25:39;;;;;;;6.45;2.75;;;;;;;25.73;38.92;100365.75;4423353;32;32784;-83
2022/07/20 05:28:12;;;;;;;10.48;2.12;;;;;;;25.89;39.28;100362.44;4402778;32;34613;-90
2022/07/20 05:30:47;;;;;;;4.70;1.70;;;;;;;26.01;38.45;100370.19;4395887;32;32533;-85
2022/07/20 05:33:16;;;;;;;10.70;2.72;;;;;;;26.27;37.06;100367.59;4381417;32;32999;-86
2022/07/20 05:35:44;;;;;;;16.25;3.03;;;;;;;26.36;36.18;100368.53;4416366;32;32369;-86
2022/07/20 05:38:17;;;;;;;11.43;1.80;;;;;;;26.46;34.99;100363.06;4397843;32;33416;-85
2022/07/20 05:40:53;;;;;;;4.18;2.05;;;;;;;26.49;36.93;100371.72;4404835;32;32164;-85
2022/07/20 05:43:25;;;;;;;6.03;1.98;;;;;;;26.58;35.91;100371.78;4413644;32;33850;-85
2022/07/20 05:45:53;;;;;;;6.55;1.62;;;;;;;26.66;34.31;100369.13;4413958;32;34093;-84
2022/07/20 05:48:22;;;;;;;5.10;2.05;;;;;;;26.76;35.79;100370.75;4393159;32;33277;-85
2022/07/20 05:50:52;;;;;;;2.25;1.75;;;;;;;26.85;35.12;100368.09;4412807;32;33666;-85
2022/07/20 05:53:20;;;;;;;6.37;1.87;;;;;;;27.23;33.32;100367.69;4399557;32;34171;-85
2022/07/20 05:55:48;;;;;;;3.90;1.73;;;;;;;27.13;34.17;100360.69;4422225;32;33580;-85
2022/07/20 05:58:16;;;;;;;4.62;1.95;;;;;;;27.36;33.67;100367.28;4389370;32;33799;-85
2022/07/20 06:00:44;;;;;;;2.40;1.45;;;;;;;27.36;32.42;100366.44;4415072;32;34221;-85
2022/07/20 06:03:18;;;;;;;5.32;1.17;;;;;;;27.45;32.38;100360.03;4397305;32;33872;-85
2022/07/20 06:05:47;;;;;;;3.67;1.62;;;;;;;27.55;32.26;100363.47;4403994;32;32158;-85
2022/07/20 06:08:19;;;;;;;10.60;1.77;;;;;;;27.90;32.60;100367.00;4394616;32;32407;-85
2022/07/20 06:10:52;;;;;;;2.05;1.48;;;;;;;27.96;33.00;100361.75;4400093;32;32915;-85
2022/07/20 06:13:21;;;;;;;6.30;1.35;;;;;;;28.10;32.33;100365.69;4412806;32;34586;-86
2022/07/20 06:15:53;;;;;;;5.62;1.27;;;;;;;28.18;31.76;100362.16;4410109;32;33266;-85
2022/07/20 06:18:23;;;;;;;3.50;1.90;;;;;;;28.38;31.38;100358.13;4397929;32;33806;-85
2022/07/20 06:20:53;;;;;;;6.03;1.80;;;;;;;28.81;31.64;100369.66;4400649;32;33222;-85
2022/07/20 06:23:21;;;;;;;4.28;1.48;;;;;;;29.05;31.48;100364.22;4401879;32;33831;-86
2022/07/20 06:25:50;;;;;;;7.72;1.85;;;;;;;29.17;32.03;100364.72;4401659;32;33171;-85
2022/07/20 06:28:19;;;;;;;6.35;1.98;;;;;;;29.04;30.08;100369.84;4414874;32;34464;-85
2022/07/20 06:30:49;;;;;;;6.10;2.25;;;;;;;29.11;30.37;100365.44;4395039;32;33999;-85
2022/07/20 06:33:19;;;;;;;6.20;2.03;;;;;;;29.13;30.97;100368.81;4415420;32;34088;-85
2022/07/20 06:35:52;;;;;;;5.60;1.73;;;;;;;29.33;29.97;100369.25;4393826;32;33065;-85
2022/07/20 06:38:21;;;;;;;8.95;1.70;;;;;;;29.61;29.96;100361.53;4402626;32;33628;-85
2022/07/20 06:40:54;;;;;;;6.37;1.58;;;;;;;29.47;30.18;100362.25;4400390;32;32902;-85
2022/07/20 06:43:24;;;;;;;5.82;2.03;;;;;;;29.92;29.58;100360.72;4401040;32;34464;-85
2022/07/20 06:45:54;;;;;;;9.13;1.92;;;;;;;29.90;29.96;100354.59;4419792;32;33221;-85
2022/07/20 06:48:26;;;;;;;5.73;1.87;;;;;;;29.82;29.35;100360.94;4394610;32;33984;-85
2022/07/20 06:50:55;;;;;;;7.22;2.10;;;;;;;30.15;28.89;100355.31;4393225;32;32960;-85
2022/07/20 06:53:26;;;;;;;6.97;1.90;;;;;;;30.32;27.79;100356.91;4413067;32;34009;-85
2022/07/20 06:55:56;;;;;;;4.55;1.65;;;;;;;30.67;27.96;100352.72;4395031;32;33933;-85
2022/07/20 06:58:24;;;;;;;12.23;2.00;;;;;;;30.87;28.79;100354.94;4402213;32;33547;-85
2022/07/20 07:00:52;;;;;;;8.88;1.60;;;;;;;30.96;27.15;100356.56;4401741;32;33208;-85
2022/07/20 07:03:22;;;;;;;13.73;2.72;;;;;;;31.10;28.07;100350.28;4416954;32;34115;-85
2022/07/20 07:05:50;;;;;;;5.57;1.58;;;;;;;31.31;27.31;100341.38;4401811;32;32761;-85
2022/07/20 07:08:19;;;;;;;9.88;2.15;;;;;;;31.21;27.44;100338.91;4415195;32;34222;-87
2022/07/20 07:10:50;;;;;;;10.27;1.70;;;;;;;31.45;27.72;100345.97;4402956;32;33683;-83
2022/07/20 07:13:19;;;;;;;6.32;1.60;;;;;;;31.41;27.11;100341.09;4418794;32;33765;-83
2022/07/20 07:15:47;;;;;;;4.10;1.95;;;;;;;31.14;26.58;100343.38;4415433;32;33246;-82
2022/07/20 07:18:16;;;;;;;3.47;1.55;;;;;;;31.71;25.85;100345.44;4397366;32;32803;-83
2022/07/20 07:20:45;;;;;;;4.80;1.60;;;;;;;31.64;26.33;100347.28;4401358;32;33809;-83
2022/07/20 07:23:16;;;;;;;4.18;2.05;;;;;;;31.73;25.63;100348.84;4402559;32;34262;-83
2022/07/20 07:25:46;;;;;;;5.53;1.27;;;;;;;31.51;25.44;100338.91;4415695;32;33918;-83
2022/07/20 07:28:21;;;;;;;7.90;1.50;;;;;;;31.57;25.24;100346.31;4393824;32;34485;-83
2022/07/20 07:30:51;;;;;;;3.90;1.37;;;;;;;31.97;25.05;100347.69;4403674;32;32405;-83
2022/07/20 07:33:25;;;;;;;3.80;1.67;;;;;;;32.40;24.49;100341.44;4403957;32;34199;-83
2022/07/20 07:35:54;;;;;;;8.00;1.50;;;;;;;32.44;24.53;100342.75;4402910;32;33725;-83
2022/07/20 07:38:23;;;;;;;5.95;2.25;;;;;;;32.31;24.47;100347.00;4399259;32;34739;-83
2022/07/20 07:40:59;;;;;;;7.87;2.55;;;;;;;32.65;24.04;100348.19;4417039;32;32861;-83
2022/07/20 07:43:28;;;;;;;3.42;1.33;;;;;;;32.99;23.02;100339.22;4411884;32;32703;-83
2022/07/20 07:45:57;;;;;;;8.18;1.70;;;;;;;33.10;24.00;100343.31;4409758;32;33124;-83
2022/07/20 07:48:27;;;;;;;9.27;1.48;;;;;;;33.08;23.94;100332.53;4401720;32;34210;-83
2022/07/20 07:50:55;;;;;;;7.12;1.60;;;;;;;33.41;23.27;100336.50;4404334;32;32707;-83
2022/07/20 07:53:24;;;;;;;4.25;1.30;;;;;;;33.52;23.57;100333.22;4402183;32;33943;-83
2022/07/20 07:55:53;;;;;;;2.60;1.00;;;;;;;33.61;22.36;100326.53;4405113;32;34035;-83
2022/07/20 07:58:24;;;;;;;6.43;1.10;;;;;;;33.52;21.58;100325.00;4403372;32;33870;-83
2022/07/20 08:00:52;;;;;;;5.15;1.40;;;;;;;33.62;22.78;100333.72;4404972;32;33819;-84
2022/07/20 08:03:23;;;;;;;5.97;2.03;;;;;;;33.70;22.95;100333.50;4399475;32;31109;-84
2022/07/20 08:06:00;;;;;;;9.93;2.05;;;;;;;33.67;23.78;100330.38;4415070;32;32847;-83
2022/07/20 08:08:31;;;;;;;9.82;1.92;;;;;;;34.15;23.12;100328.41;4409250;32;33624;-83
2022/07/20 08:11:05;;;;;;;6.87;1.92;;;;;;;33.73;23.24;100324.91;4400622;32;33691;-84
2022/07/20 08:13:35;;;;;;;5.12;1.35;;;;;;;33.71;23.30;100321.53;4414968;32;34868;-83
2022/07/20 08:16:04;;;;;;;5.03;2.10;;;;;;;34.23;23.75;100328.22;4401196;32;32516;-83
2022/07/20 08:18:32;;;;;;;5.00;1.67;;;;;;;34.09;23.51;100329.25;4415394;32;32264;-83
2022/07/20 08:21:02;;;;;;;6.50;1.65;;;;;;;34.21;23.45;100330.31;4413885;32;33844;-83
2022/07/20 08:23:30;;;;;;;5.95;1.35;;;;;;;34.53;22.99;100319.63;4413628;32;33950;-83
2022/07/20 08:26:04;;;;;;;4.60;1.48;;;;;;;34.43;22.88;100320.03;4415862;32;34524;-83
2022/07/20 08:28:40;;;;;;;2.60;1.62;;;;;;;34.35;23.41;100315.56;4399244;32;33078;-84
2022/07/20 08:31:13;;;;;;;6.22;2.50;;;;;;;34.34;22.42;100321.28;4413986;32;33654;-83
2022/07/20 08:33:42;;;;;;;7.55;1.55;;;;;;;35.00;23.32;100315.81;4401111;32;34662;-84
2022/07/20 08:36:11;;;;;;;4.82;1.80;;;;;;;34.48;22.35;100313.94;4415326;32;33317;-84
2022/07/20 08:38:44;;;;;;;17.48;2.22;;;;;;;34.73;22.19;100320.47;4399301;32;33962;-84
2022/07/20 08:41:14;;;;;;;8.25;1.50;;;;;;;35.11;21.71;100312.41;4409333;32;33615;-84
2022/07/20 08:43:44;;;;;;;8.57;1.98;;;;;;;34.60;22.64;100315.81;4417246;32;34184;-84
2022/07/20 08:46:13;;;;;;;6.97;1.70;;;;;;;34.94;21.01;100313.88;4404011;32;32758;-84
2022/07/20 08:48:42;;;;;;;5.00;2.30;;;;;;;35.01;21.19;100314.75;4414501;32;33917;-84
2022/07/20 08:51:10;;;;;;;4.07;1.37;;;;;;;35.27;20.41;100311.09;4404967;32;33325;-84
2022/07/20 08:53:40;;;;;;;6.12;1.58;;;;;;;35.49;21.07;100310.84;4404891;32;33445;-84
2022/07/20 08:56:12;;;;;;;11.10;1.58;;;;;;;35.19;20.84;100305.84;4405906;32;33481;-84
2022/07/20 08:58:41;;;;;;;4.85;1.40;;;;;;;35.49;20.79;100308.09;4415366;32;33212;-84
2022/07/20 09:01:17;;;;;;;7.03;2.00;;;;;;;35.80;19.68;100302.69;4404687;32;34037;-83
2022/07/20 09:04:04;;;;;;;5.18;1.58;;;;;;;36.42;18.86;100294.66;4417072;32;31975;-83
2022/07/20 09:06:47;;;;;;;7.32;1.55;;;;;;;36.26;18.92;100298.78;4416295;32;33672;-84
2022/07/20 09:09:19;;;;;;;3.12;1.35;;;;;;;36.19;19.66;100295.25;4407065;32;33369;-84
2022/07/20 09:11:50;;;;;;;6.90;1.27;;;;;;;36.58;20.06;100291.37;4403703;32;32797;-84
2022/07/20 09:14:41;;;;;;;6.00;1.45;;;;;;;36.52;20.30;100289.53;4399984;32;33147;-84
2022/07/20 09:20:00;;;;;;;6.90;1.60;;;;;;;36.03;18.56;100287.53;4400610;32;34317;-84
2022/07/20 09:22:43;;;;;;;6.00;1.48;;;;;;;36.32;18.13;100278.66;4413886;32;34654;-84
2022/07/20 09:25:14;;;;;;;6.22;1.40;;;;;;;35.91;18.16;100288.22;4415659;32;34149;-84
2022/07/20 09:27:43;;;;;;;6.45;1.27;;;;;;;36.11;19.72;100292.78;4415439;32;33734;-84
2022/07/20 09:30:18;;;;;;;5.70;1.83;;;;;;;36.70;17.28;100271.34;4397794;32;33735;-84
2022/07/20 09:35:33;;;;;;;11.00;1.48;;;;;;;35.98;18.42;100273.63;4414378;32;34172;-84
2022/07/20 09:38:04;;;;;;;8.70;1.73;;;;;;;36.04;18.38;100276.34;4400252;32;34113;-84
2022/07/20 09:41:00;;;;;;;3.60;1.20;;;;;;;36.26;18.69;100265.78;4389356;32;32838;-84
2022/07/20 09:43:34;;;;;;;5.60;1.30;;;;;;;36.71;17.59;100268.41;4402521;32;33646;-84
2022/07/20 09:46:14;;;;;;;3.25;1.30;;;;;;;36.71;17.14;100262.06;4399704;32;33831;-84
2022/07/20 09:48:55;;;;;;;5.00;1.23;;;;;;;36.86;17.53;100260.63;4405627;32;34268;-84
2022/07/20 09:51:28;;;;;;;6.03;1.37;;;;;;;37.19;16.81;100256.69;4400068;32;33507;-84
2022/07/20 09:54:02;;;;;;;4.43;1.17;;;;;;;37.45;16.43;100251.94;4417153;32;33344;-84
2022/07/20 09:56:34;;;;;;;5.15;1.05;;;;;;;37.46;16.85;100248.97;4403189;32;33367;-84
2022/07/20 09:59:06;;;;;;;4.97;1.23;;;;;;;37.35;16.11;100253.28;4402171;32;32401;-84
2022/07/20 10:01:41;;;;;;;2.87;1.08;;;;;;;37.25;16.27;100244.72;4412318;32;33877;-84
2022/07/20 10:04:12;;;;;;;3.03;1.00;;;;;;;37.42;15.81;100245.00;4404038;32;34764;-84
2022/07/20 10:06:49;;;;;;;3.00;0.90;;;;;;;37.40;16.18;100252.62;4389266;32;34129;-84
2022/07/20 10:09:21;;;;;;;1.42;1.30;;;;;;;37.63;17.78;100254.66;4398942;32;34044;-84
2022/07/20 10:11:53;;;;;;;8.63;1.73;;;;;;;37.19;16.04;100239.31;4399962;32;33982;-84
2022/07/20 10:14:26;;;;;;;4.22;1.23;;;;;;;38.16;16.48;100251.13;4387281;32;33780;-84
2022/07/20 10:16:55;;;;;;;2.90;1.15;;;;;;;38.07;15.53;100250.59;4386862;32;34034;-84
2022/07/20 10:19:45;;;;;;;4.05;1.40;;;;;;;38.63;17.06;100242.91;4372523;32;33894;-84
2022/07/20 10:22:14;;;;;;;2.25;1.23;;;;;;;37.79;15.32;100242.94;4387519;32;34153;-84
2022/07/20 10:24:44;;;;;;;2.45;1.20;;;;;;;37.60;16.59;100236.69;4398251;32;32526;-84
2022/07/20 10:27:13;;;;;;;9.15;1.80;;;;;;;38.46;16.46;100237.28;4391731;32;33639;-84
2022/07/20 10:29:44;;;;;;;2.15;1.10;;;;;;;38.69;14.63;100230.87;4386528;32;33357;-84
2022/07/20 10:32:28;;;;;;;7.55;1.58;;;;;;;38.31;15.51;100229.44;4376217;32;33720;-84
2022/07/20 10:35:27;;;;;;;2.10;1.02;;;;;;;38.70;16.57;100224.31;4405212;32;34702;-84
2022/07/20 10:37:56;;;;;;;5.07;0.98;;;;;;;39.01;14.81;100216.72;4381134;32;34126;-84
2022/07/20 10:40:28;;;;;;;;;;;;;;;38.86;14.15;100209.78;4387404;32;33633;-84
2022/07/20 10:43:17;;;;;;;1.87;1.10;;;;;;;38.26;15.60;100226.53;4409898;32;34950;-84
2022/07/20 10:48:25;;;;;;;2.00;1.00;;;;;;;38.31;15.55;100220.34;4387099;32;34606;-84
2022/07/20 10:50:57;;;;;;;6.35;1.15;;;;;;;38.45;15.82;100221.78;4406705;32;34129;-83
2022/07/20 10:53:28;;;;;;;4.78;1.00;;;;;;;38.96;15.36;100211.94;4404701;32;33946;-84
2022/07/20 10:56:02;;;;;;;1.10;1.00;;;;;;;39.11;14.34;100205.88;4402068;32;33693;-84
2022/07/20 10:58:39;;;;;;;3.40;1.08;;;;;;;38.68;14.69;100193.34;4395804;32;33626;-84
2022/07/20 11:01:13;;;;;;;3.17;1.10;;;;;;;39.23;15.07;100192.91;4407215;32;33099;-84
2022/07/20 11:03:48;;;;;;;;;;;;;;;38.93;15.05;100205.00;4392868;32;33915;-83
2022/07/20 11:06:21;;;;;;;4.75;1.27;;;;;;;38.80;15.26;100205.25;4397956;32;33702;-84
2022/07/20 11:08:53;;;;;;;5.30;0.80;;;;;;;38.90;14.96;100194.41;4387837;32;34605;-83
2022/07/20 11:11:31;;;;;;;3.62;1.25;;;;;;;38.90;15.09;100193.59;4389142;32;33587;-84
2022/07/20 11:14:05;;;;;;;3.10;1.25;;;;;;;38.83;15.73;100192.87;4396493;32;34210;-84
2022/07/20 11:16:40;;;;;;;1.48;0.80;;;;;;;39.22;15.08;100176.56;4397834;32;33274;-84
2022/07/20 11:19:08;;;;;;;2.08;1.08;;;;;;;39.22;14.30;100180.19;4401220;32;33652;-83
2022/07/20 11:21:42;;;;;;;2.35;1.15;;;;;;;39.23;15.71;100179.09;4387812;32;33205;-84
2022/07/20 11:24:23;;;;;;;2.05;1.10;;;;;;;38.58;14.97;100179.31;4398190;32;33661;-83
2022/07/20 11:26:52;;;;;;;4.18;1.87;;;;;;;39.07;15.10;100177.06;4376697;32;34219;-83
2022/07/20 11:29:23;;;;;;;;;;;;;;;38.60;14.02;100177.16;4399939;32;33487;-83
2022/07/20 11:31:51;;;;;;;0.88;0.85;;;;;;;38.78;14.65;100177.03;4389455;32;33514;-83
2022/07/20 11:34:21;;;;;;;2.17;0.98;;;;;;;38.53;14.57;100174.53;4395588;32;33590;-83
2022/07/20 11:36:54;;;;;;;10.88;2.62;;;;;;;38.77;14.72;100161.56;4407073;32;32903;-83
2022/07/20 11:39:29;;;;;;;14.45;1.80;;;;;;;38.92;14.64;100166.56;4373429;32;33776;-84
2022/07/20 11:41:58;;;;;;;3.35;1.15;;;;;;;39.05;15.42;100160.75;4370397;32;32792;-82
2022/07/20 11:44:27;;;;;;;8.65;1.52;;;;;;;39.13;14.59;100159.53;4404395;32;32636;-83
2022/07/20 11:46:58;;;;;;;4.90;1.42;;;;;;;38.68;14.91;100165.75;4395726;32;32582;-83
2022/07/20 11:49:31;;;;;;;6.07;1.67;;;;;;;39.24;15.01;100160.59;4403162;32;34709;-83
2022/07/20 11:52:05;;;;;;;3.12;1.20;;;;;;;39.04;13.81;100163.78;4403554;32;32590;-83